Time;durP1;ratioP1;P1;durP2;ratioP2;P2;SDS_P1;SDS_P2;PMS_P1;PMS_P2;Temp;Humidity;BMP_temperature;BMP_pressure;BME280_temperature;BME280_humidity;BME280_pressure;Samples;Min_cycle;Max_cycle;Signal;HPM_P1;HPM_P2
2023/08/28 00:00:31;;;;;;;10.43;6.88;;;;;;;24.89;51.86;94503.69;4974649;28;20463;-80
2023/08/28 00:02:56;;;;;;;7.87;4.97;;;;;;;24.90;51.62;94521.44;4973677;28;20430;-81
2023/08/28 00:05:22;;;;;;;7.78;4.45;;;;;;;24.78;52.13;94532.78;4966037;28;20183;-80
2023/08/28 00:07:47;;;;;;;7.22;4.85;;;;;;;24.74;52.30;94529.09;4965777;28;20487;-80
2023/08/28 00:10:13;;;;;;;7.00;4.28;;;;;;;24.74;52.37;94521.00;4966179;28;20174;-81
2023/08/28 00:12:40;;;;;;;6.75;4.80;;;;;;;24.72;52.66;94523.25;4965936;28;20174;-80
2023/08/28 00:15:09;;;;;;;5.82;4.15;;;;;;;24.47;52.19;94483.50;4964134;28;20411;-81
2023/08/28 00:17:36;;;;;;;5.70;4.00;;;;;;;24.64;52.37;94508.63;4963228;28;20557;-80
2023/08/28 00:20:03;;;;;;;8.73;4.27;;;;;;;24.58;52.59;94509.84;4962668;28;20485;-81
2023/08/28 00:22:28;;;;;;;8.90;4.35;;;;;;;24.58;52.70;94517.09;4955609;29;20544;-80
2023/08/28 00:24:54;;;;;;;5.30;4.30;;;;;;;24.41;52.57;94485.50;4954001;29;20502;-80
2023/08/28 00:27:19;;;;;;;9.90;4.30;;;;;;;24.76;51.93;94516.13;4936959;29;20450;-80
2023/08/28 00:29:44;;;;;;;10.13;3.93;;;;;;;24.67;52.04;94516.06;4963429;28;20455;-80
2023/08/28 00:32:10;;;;;;;8.88;4.35;;;;;;;24.55;52.34;94515.06;4962441;28;20442;-80
2023/08/28 00:34:35;;;;;;;9.50;5.17;;;;;;;24.50;52.42;94509.78;4952606;28;20449;-80
2023/08/28 00:37:00;;;;;;;8.05;4.80;;;;;;;24.44;52.60;94517.97;4961709;28;20658;-81
2023/08/28 00:39:27;;;;;;;8.05;5.00;;;;;;;24.33;53.11;94503.16;4962058;28;20306;-81
2023/08/28 00:41:53;;;;;;;9.57;4.70;;;;;;;24.10;52.96;94488.09;4963103;28;20447;-80
2023/08/28 00:44:18;;;;;;;10.45;5.50;;;;;;;24.24;53.43;94531.09;4964987;28;20363;-81
2023/08/28 00:46:44;;;;;;;8.37;4.87;;;;;;;24.14;53.32;94521.34;4964944;28;20516;-80
2023/08/28 00:49:10;;;;;;;9.07;4.53;;;;;;;24.21;53.76;94534.44;4967225;28;20175;-81
2023/08/28 00:51:36;;;;;;;10.18;5.18;;;;;;;24.23;53.91;94532.19;4953428;29;20551;-81
2023/08/28 00:54:03;;;;;;;13.43;4.88;;;;;;;24.24;53.70;94531.91;4954725;29;20175;-81
2023/08/28 00:56:29;;;;;;;10.57;5.80;;;;;;;24.22;53.66;94528.72;4963112;28;20170;-79
2023/08/28 00:58:55;;;;;;;10.18;5.70;;;;;;;24.17;53.77;94517.25;4962339;28;20520;-79
2023/08/28 01:01:20;;;;;;;11.05;6.65;;;;;;;24.21;54.18;94518.28;4964142;28;20170;-79
2023/08/28 01:03:45;;;;;;;10.30;4.40;;;;;;;24.01;53.40;94484.53;4961514;28;20510;-78
2023/08/28 01:06:28;;;;;;;11.05;5.32;;;;;;;24.01;54.12;94503.34;4954915;29;20171;-79
2023/08/28 01:08:54;;;;;;;7.63;4.40;;;;;;;24.06;53.97;94511.31;4969882;28;20519;-78
2023/08/28 01:11:44;;;;;;;9.77;5.30;;;;;;;24.02;53.92;94507.66;4962907;28;20178;-79
2023/08/28 01:14:21;;;;;;;12.73;6.50;;;;;;;23.91;54.29;94498.19;4963030;28;20197;-79
2023/08/28 01:16:50;;;;;;;9.80;6.47;;;;;;;24.09;55.27;94518.78;4963154;28;20298;-79
2023/08/28 01:19:43;;;;;;;8.30;6.22;;;;;;;24.10;55.97;94517.69;4962811;28;20187;-79
2023/08/28 01:22:21;;;;;;;9.80;5.15;;;;;;;23.97;56.03;94497.78;4954134;28;20269;-79
2023/08/28 01:24:51;;;;;;;7.55;5.40;;;;;;;23.97;56.27;94511.22;4970777;28;20177;-79
2023/08/28 01:27:17;;;;;;;9.02;6.13;;;;;;;23.67;56.78;94482.34;4955533;28;20209;-79
2023/08/28 01:29:43;;;;;;;12.38;5.32;;;;;;;23.58;57.09;94478.75;4958843;28;20174;-79
2023/08/28 01:32:09;;;;;;;9.15;4.43;;;;;;;23.76;57.38;94510.09;4956669;28;20918;-79
2023/08/28 01:34:35;;;;;;;8.73;5.00;;;;;;;23.56;57.77;94507.81;4958869;28;20418;-79
2023/08/28 01:37:12;;;;;;;11.60;7.20;;;;;;;23.34;58.40;94476.28;4963305;28;20182;-79
2023/08/28 01:39:43;;;;;;;9.43;6.05;;;;;;;23.47;58.51;94499.63;4964396;28;20240;-79
2023/08/28 01:42:10;;;;;;;12.38;8.18;;;;;;;23.42;58.58;94490.91;4963835;28;20654;-79
2023/08/28 01:44:36;;;;;;;7.68;4.72;;;;;;;23.18;58.30;94467.69;4962548;28;20174;-79
2023/08/28 01:47:04;;;;;;;9.03;5.80;;;;;;;23.01;59.12;94458.66;4961401;28;20419;-79
2023/08/28 01:49:29;;;;;;;8.00;5.43;;;;;;;22.78;60.17;94471.16;4960323;28;20410;-79
2023/08/28 01:51:55;;;;;;;8.88;5.25;;;;;;;22.75;60.09;94477.91;4964914;28;20637;-79
2023/08/28 01:54:21;;;;;;;11.95;5.22;;;;;;;22.73;60.01;94461.31;4957620;29;20194;-79
2023/08/28 01:56:48;;;;;;;10.27;5.80;;;;;;;22.87;60.49;94486.31;4956446;28;20492;-79
2023/08/28 01:59:14;;;;;;;9.35;5.55;;;;;;;22.66;61.15;94487.72;4957287;29;20938;-79
2023/08/28 02:01:39;;;;;;;9.63;5.27;;;;;;;22.44;61.45;94493.72;4967935;28;20423;-79
2023/08/28 02:04:06;;;;;;;9.45;5.57;;;;;;;22.50;61.64;94495.22;4951025;28;20433;-79
2023/08/28 02:06:31;;;;;;;9.50;5.35;;;;;;;22.48;61.24;94467.13;4968349;28;20559;-79
2023/08/28 02:08:57;;;;;;;10.90;5.57;;;;;;;22.53;61.29;94470.50;4968031;28;20204;-79
2023/08/28 02:11:22;;;;;;;10.02;5.18;;;;;;;22.42;61.35;94442.25;4966194;28;20257;-79
2023/08/28 02:13:48;;;;;;;9.18;4.82;;;;;;;22.70;60.96;94485.25;4966272;28;20186;-79
2023/08/28 02:16:13;;;;;;;9.30;4.88;;;;;;;22.62;60.65;94472.50;4948714;29;20245;-79
2023/08/28 02:18:39;;;;;;;9.00;4.97;;;;;;;22.73;61.03;94490.84;4966058;28;20175;-79
2023/08/28 02:21:04;;;;;;;11.77;5.53;;;;;;;22.68;60.96;94492.78;4960002;28;20277;-79
2023/08/28 02:23:30;;;;;;;12.75;4.70;;;;;;;22.52;61.32;94468.09;4967876;28;20181;-79
2023/08/28 02:25:55;;;;;;;9.63;5.22;;;;;;;22.51;61.38;94464.63;4961119;28;20178;-79
2023/08/28 02:28:21;;;;;;;9.43;5.60;;;;;;;22.49;61.50;94468.69;4966083;28;20260;-79
2023/08/28 02:30:47;;;;;;;11.13;5.85;;;;;;;22.54;61.61;94484.72;4967810;28;20196;-79
2023/08/28 02:33:13;;;;;;;9.05;5.03;;;;;;;22.31;61.88;94454.25;4967856;28;20177;-79
2023/08/28 02:35:39;;;;;;;8.02;5.20;;;;;;;22.42;61.86;94479.00;4960632;28;20182;-79
2023/08/28 02:38:08;;;;;;;13.45;5.30;;;;;;;22.25;62.38;94452.72;4957307;29;20163;-79
2023/08/28 02:40:37;;;;;;;11.65;4.93;;;;;;;22.29;62.65;94464.47;4965696;28;20185;-79
2023/08/28 02:43:06;;;;;;;14.73;5.32;;;;;;;22.39;62.50;94469.69;4957038;29;20253;-79
2023/08/28 02:45:33;;;;;;;8.93;5.60;;;;;;;22.26;62.57;94448.97;4961869;28;20191;-79
2023/08/28 02:47:59;;;;;;;8.20;4.53;;;;;;;22.41;62.43;94477.41;4967416;28;20206;-79
2023/08/28 02:50:24;;;;;;;8.80;5.13;;;;;;;22.34;62.88;94466.28;4967731;28;20206;-79
2023/08/28 02:52:49;;;;;;;8.85;5.38;;;;;;;22.21;62.82;94451.75;4967397;28;20178;-79
2023/08/28 02:55:15;;;;;;;9.30;5.68;;;;;;;21.91;62.86;94426.16;4965467;28;20181;-79
2023/08/28 02:57:40;;;;;;;13.82;6.97;;;;;;;22.06;63.45;94450.09;4956872;29;20645;-79
2023/08/28 03:00:06;;;;;;;30.13;19.00;;;;;;;22.11;63.33;94476.84;4956900;29;20166;-79
2023/08/28 03:02:32;;;;;;;14.63;9.82;;;;;;;22.05;63.66;94471.84;4963567;28;20232;-79
2023/08/28 03:04:57;;;;;;;24.85;14.93;;;;;;;22.02;63.91;94469.75;4975701;28;20185;-79
2023/08/28 03:07:22;;;;;;;18.25;10.07;;;;;;;21.99;64.36;94481.03;4958349;28;20190;-79
2023/08/28 03:09:48;;;;;;;16.52;8.93;;;;;;;21.91;64.45;94479.78;4975693;28;20185;-79
2023/08/28 03:12:13;;;;;;;24.73;15.00;;;;;;;21.82;64.65;94476.97;4967163;28;20185;-81
2023/08/28 03:14:38;;;;;;;28.83;16.05;;;;;;;21.89;64.95;94476.59;4975734;28;20209;-81
2023/08/28 03:17:05;;;;;;;18.05;11.02;;;;;;;21.82;64.30;94476.97;4975299;28;20189;-81
2023/08/28 03:19:30;;;;;;;15.02;8.95;;;;;;;21.62;64.72;94449.66;4958649;28;20205;-81
2023/08/28 03:21:55;;;;;;;28.77;13.18;;;;;;;21.48;64.21;94444.22;4958055;28;20675;-81
2023/08/28 03:24:21;;;;;;;16.15;6.45;;;;;;;21.63;64.41;94481.50;4958077;28;20181;-81
2023/08/28 03:26:46;;;;;;;12.88;6.15;;;;;;;21.49;64.80;94472.59;4958061;28;20209;-81
2023/08/28 03:29:12;;;;;;;15.25;6.93;;;;;;;21.52;65.13;94480.06;4975490;28;20170;-81
2023/08/28 03:31:37;;;;;;;25.13;11.52;;;;;;;21.39;65.46;94470.06;4975331;28;20617;-81
2023/08/28 03:34:02;;;;;;;32.10;11.98;;;;;;;21.42;65.98;94482.88;4975436;28;20202;-81
2023/08/28 03:36:28;;;;;;;24.63;12.27;;;;;;;21.31;66.39;94476.03;4975339;28;20166;-81
2023/08/28 03:38:53;;;;;;;25.88;11.18;;;;;;;21.21;66.37;94462.78;4975370;28;20166;-81
2023/08/28 03:41:18;;;;;;;23.20;11.00;;;;;;;21.34;66.55;94484.31;4975296;28;20612;-81
2023/08/28 03:43:44;;;;;;;29.88;11.80;;;;;;;21.28;66.58;94487.31;4975704;28;20180;-81
2023/08/28 03:46:09;;;;;;;23.30;11.18;;;;;;;21.11;66.68;94450.28;4975182;28;20571;-81
2023/08/28 03:48:35;;;;;;;27.25;11.38;;;;;;;21.26;66.44;94481.47;4975136;28;20210;-81
2023/08/28 03:51:00;;;;;;;18.70;9.40;;;;;;;21.12;66.74;94451.88;4974991;28;20261;-81
2023/08/28 03:53:26;;;;;;;23.35;11.13;;;;;;;21.21;66.68;94476.16;4974730;28;20176;-81
2023/08/28 03:55:53;;;;;;;28.83;13.82;;;;;;;21.23;66.54;94476.69;4974965;28;20174;-81
2023/08/28 03:58:20;;;;;;;29.42;12.48;;;;;;;21.24;67.09;94470.25;4975324;28;20181;-81
2023/08/28 04:00:46;;;;;;;22.17;10.65;;;;;;;21.25;66.75;94479.88;4974853;28;20541;-81
2023/08/28 04:03:11;;;;;;;27.98;12.23;;;;;;;21.22;66.78;94478.56;4974802;28;20236;-79
2023/08/28 04:05:38;;;;;;;26.10;11.23;;;;;;;21.17;67.38;94475.13;4974750;28;20181;-80
2023/08/28 04:08:04;;;;;;;18.83;7.72;;;;;;;21.14;66.96;94471.13;4974657;28;20747;-81
2023/08/28 04:10:29;;;;;;;14.75;7.90;;;;;;;21.00;66.95;94456.84;4974640;28;20559;-80
2023/08/28 04:12:55;;;;;;;21.00;9.43;;;;;;;21.15;67.51;94477.28;4974077;28;20189;-79
2023/08/28 04:15:20;;;;;;;22.73;8.90;;;;;;;21.26;67.28;94487.63;4973949;28;20264;-79
2023/08/28 04:17:45;;;;;;;27.65;14.30;;;;;;;21.34;67.24;94472.81;4974429;28;20188;-80
2023/08/28 04:20:13;;;;;;;21.95;11.30;;;;;;;21.42;67.01;94478.31;4974583;28;20177;-80
2023/08/28 04:22:45;;;;;;;22.90;11.63;;;;;;;21.56;66.64;94477.59;4968541;28;20184;-80
2023/08/28 04:25:11;;;;;;;22.80;11.07;;;;;;;21.70;66.32;94475.81;4974673;28;20168;-80
2023/08/28 04:27:38;;;;;;;25.23;10.40;;;;;;;21.80;65.80;94476.44;4974304;28;20237;-80
2023/08/28 04:30:04;;;;;;;17.65;8.52;;;;;;;21.83;65.72;94461.69;4974305;28;20269;-80
2023/08/28 04:32:30;;;;;;;25.60;9.93;;;;;;;21.82;64.75;94455.50;4974165;28;20174;-80
2023/08/28 04:34:56;;;;;;;20.38;8.98;;;;;;;21.81;65.15;94451.25;4956747;28;20176;-80
2023/08/28 04:37:23;;;;;;;16.77;9.38;;;;;;;21.98;64.74;94477.56;4974105;28;20268;-80
2023/08/28 04:39:48;;;;;;;17.15;8.52;;;;;;;21.96;64.73;94478.94;4973995;28;20625;-80
2023/08/28 04:42:15;;;;;;;16.42;8.02;;;;;;;21.93;64.46;94469.56;4974111;28;20273;-79
2023/08/28 04:44:40;;;;;;;13.35;6.80;;;;;;;22.11;64.56;94489.44;4965626;28;20652;-79
2023/08/28 04:47:05;;;;;;;17.08;7.15;;;;;;;22.24;64.00;94486.00;4973810;28;20272;-79
2023/08/28 04:49:31;;;;;;;10.77;6.53;;;;;;;22.44;63.54;94487.56;4973189;28;20189;-79
2023/08/28 04:51:56;;;;;;;16.52;7.25;;;;;;;22.50;62.79;94472.97;4972080;28;20181;-79
2023/08/28 04:54:21;;;;;;;11.57;6.78;;;;;;;22.81;61.97;94492.88;4972456;28;20572;-79
2023/08/28 04:56:47;;;;;;;10.75;6.18;;;;;;;23.08;61.07;94500.16;4973619;28;20170;-79
2023/08/28 04:59:12;;;;;;;15.10;6.30;;;;;;;23.27;60.94;94492.78;4973394;28;20177;-80
2023/08/28 05:01:38;;;;;;;14.02;6.32;;;;;;;23.31;60.11;94450.00;4973358;28;20177;-79
2023/08/28 05:04:04;;;;;;;21.08;7.18;;;;;;;23.96;58.97;94495.38;4965031;28;20170;-80
2023/08/28 05:06:29;;;;;;;24.30;11.27;;;;;;;24.13;57.95;94482.09;4964868;28;20184;-80
2023/08/28 05:08:55;;;;;;;24.52;14.07;;;;;;;24.47;57.17;94483.50;4965586;28;20205;-80
2023/08/28 05:11:20;;;;;;;16.98;7.97;;;;;;;24.74;56.57;94475.22;4964997;28;20748;-81
2023/08/28 05:13:46;;;;;;;23.92;10.82;;;;;;;25.12;55.25;94489.88;4947686;28;20209;-79
2023/08/28 05:16:11;;;;;;;25.02;11.95;;;;;;;25.34;54.73;94477.44;4964290;28;20297;-80
2023/08/28 05:18:37;;;;;;;27.23;17.13;;;;;;;25.61;53.77;94479.91;4963716;28;20170;-79
2023/08/28 05:21:03;;;;;;;17.08;10.15;;;;;;;25.75;54.00;94471.69;4966550;28;20209;-79
2023/08/28 05:23:28;;;;;;;22.95;11.05;;;;;;;26.07;52.42;94475.84;4962917;28;20185;-79
2023/08/28 05:25:55;;;;;;;16.23;9.38;;;;;;;26.32;51.59;94480.47;4968668;28;20352;-79
2023/08/28 05:28:21;;;;;;;17.42;9.30;;;;;;;26.50;51.12;94487.44;4969521;28;20205;-80
2023/08/28 05:30:46;;;;;;;19.25;7.75;;;;;;;26.68;50.41;94483.59;4971378;28;20174;-80
2023/08/28 05:33:12;;;;;;;19.02;6.03;;;;;;;26.71;49.50;94446.25;4966305;28;20190;-80
2023/08/28 05:35:38;;;;;;;13.95;5.90;;;;;;;27.08;49.25;94483.34;4963720;28;20186;-80
2023/08/28 05:38:04;;;;;;;14.23;5.93;;;;;;;27.17;48.01;94465.19;4964833;28;20178;-79
2023/08/28 05:40:30;;;;;;;11.05;5.18;;;;;;;27.23;47.69;94457.72;4964596;28;20188;-78
2023/08/28 05:42:56;;;;;;;9.27;5.60;;;;;;;27.45;47.88;94487.16;4962782;28;20173;-80
2023/08/28 05:45:21;;;;;;;9.07;4.78;;;;;;;27.58;47.14;94480.00;4964607;28;20184;-80
2023/08/28 05:47:47;;;;;;;8.90;5.13;;;;;;;27.68;47.01;94472.28;4973471;28;20196;-80
2023/08/28 05:50:12;;;;;;;7.40;5.45;;;;;;;27.65;46.65;94478.34;4973355;28;20685;-80
2023/08/28 05:52:38;;;;;;;14.35;6.60;;;;;;;27.56;46.71;94441.66;4973281;28;20166;-80
2023/08/28 05:55:07;;;;;;;11.18;4.70;;;;;;;27.64;45.61;94465.16;4956014;28;20265;-80
2023/08/28 05:57:34;;;;;;;10.63;6.85;;;;;;;27.55;46.74;94461.69;4962523;28;20694;-80
2023/08/28 05:59:59;;;;;;;11.57;4.40;;;;;;;27.64;46.91;94451.63;4962402;28;20210;-80
2023/08/28 06:02:25;;;;;;;8.18;4.20;;;;;;;27.91;45.74;94466.56;4968401;28;20312;-80
2023/08/28 06:04:52;;;;;;;11.23;4.80;;;;;;;28.16;45.78;94468.31;4973183;28;20185;-81
2023/08/28 06:07:17;;;;;;;10.30;5.05;;;;;;;28.41;45.45;94458.38;4972998;28;20194;-80
2023/08/28 06:09:43;;;;;;;11.30;4.72;;;;;;;28.77;44.21;94455.81;4973077;28;20232;-81
2023/08/28 06:12:09;;;;;;;9.45;4.88;;;;;;;29.21;43.90;94486.75;4973174;28;20874;-81
2023/08/28 06:14:36;;;;;;;12.93;4.80;;;;;;;29.54;43.20;94483.16;4972782;28;20182;-81
2023/08/28 06:17:05;;;;;;;8.98;4.32;;;;;;;29.57;41.43;94471.66;4973040;28;20301;-81
2023/08/28 06:19:30;;;;;;;8.77;4.63;;;;;;;29.42;42.15;94496.72;4972936;28;20206;-81
2023/08/28 06:21:56;;;;;;;8.50;4.22;;;;;;;29.41;42.55;94501.34;4972705;28;20621;-81
2023/08/28 06:24:21;;;;;;;7.88;5.15;;;;;;;29.54;43.11;94497.53;4972816;28;20198;-83
2023/08/28 06:26:47;;;;;;;11.93;6.45;;;;;;;29.85;42.23;94490.72;4972745;28;20221;-83
2023/08/28 06:29:13;;;;;;;35.17;21.65;;;;;;;30.04;42.35;94495.56;4973221;28;20692;-82
2023/08/28 06:31:38;;;;;;;19.15;10.73;;;;;;;30.10;41.50;94473.25;4972617;28;20707;-83
2023/08/28 06:34:04;;;;;;;10.93;5.18;;;;;;;30.39;40.78;94496.63;4955600;28;20174;-81
2023/08/28 06:36:30;;;;;;;8.85;5.18;;;;;;;30.47;40.30;94490.25;4972762;28;20622;-81
2023/08/28 06:38:56;;;;;;;13.40;5.95;;;;;;;30.40;40.66;94476.47;4975992;28;20181;-82
2023/08/28 06:41:22;;;;;;;11.27;4.68;;;;;;;30.48;40.94;94478.25;4976482;28;20182;-82
2023/08/28 06:43:48;;;;;;;6.63;4.18;;;;;;;30.79;40.88;94501.28;4973721;28;20304;-84
2023/08/28 06:46:14;;;;;;;11.38;5.10;;;;;;;31.13;40.28;94491.69;4971927;28;20253;-85
2023/08/28 06:48:43;;;;;;;15.80;6.72;;;;;;;31.15;39.96;94494.84;4974791;28;20671;-85
2023/08/28 06:51:09;;;;;;;9.18;4.05;;;;;;;31.28;40.18;94477.31;4967391;28;20186;-85
2023/08/28 06:53:34;;;;;;;15.13;4.78;;;;;;;31.29;38.76;94468.81;4975945;28;20181;-86
2023/08/28 06:56:00;;;;;;;9.65;5.13;;;;;;;31.65;38.68;94494.19;4975846;28;20181;-85
2023/08/28 06:58:25;;;;;;;11.57;4.75;;;;;;;31.85;37.81;94488.44;4975651;28;20649;-85
2023/08/28 07:00:51;;;;;;;16.27;4.82;;;;;;;32.00;38.03;94489.53;4976109;28;20244;-83
2023/08/28 07:03:16;;;;;;;10.38;4.95;;;;;;;32.15;37.32;94474.31;4975871;28;20701;-84
2023/08/28 07:05:41;;;;;;;11.48;4.63;;;;;;;32.37;37.62;94492.72;4975993;28;20189;-84
2023/08/28 07:08:07;;;;;;;12.23;4.45;;;;;;;32.39;37.07;94471.34;4976184;28;20186;-84
2023/08/28 07:10:32;;;;;;;10.68;4.32;;;;;;;32.68;36.51;94488.28;4975780;28;20637;-79
2023/08/28 07:12:58;;;;;;;10.48;4.45;;;;;;;32.28;36.81;94489.41;4975775;28;20174;-81
2023/08/28 07:15:29;;;;;;;13.57;4.75;;;;;;;32.47;37.87;94488.63;4975519;28;20700;-80
2023/08/28 07:17:54;;;;;;;10.32;5.20;;;;;;;32.73;37.26;94488.00;4974408;28;20568;-82
2023/08/28 07:20:23;;;;;;;10.57;5.43;;;;;;;33.05;36.78;94497.56;4970959;28;20186;-79
2023/08/28 07:22:48;;;;;;;9.32;4.57;;;;;;;33.28;36.36;94490.25;4970010;28;20184;-80
2023/08/28 07:25:16;;;;;;;12.32;7.22;;;;;;;33.56;35.08;94498.09;4975016;28;20687;-80
2023/08/28 07:27:42;;;;;;;8.13;4.90;;;;;;;33.77;34.76;94503.16;4974909;28;20202;-78
2023/08/28 07:30:08;;;;;;;8.57;4.75;;;;;;;33.90;35.00;94492.81;4975129;28;20182;-80
2023/08/28 07:32:34;;;;;;;8.57;4.18;;;;;;;34.16;33.99;94483.81;4973762;28;20182;-79
2023/08/28 07:35:00;;;;;;;9.93;4.30;;;;;;;34.42;33.12;94498.25;4973694;28;20243;-80
2023/08/28 07:37:43;;;;;;;8.98;4.10;;;;;;;34.48;31.98;94503.41;4956435;28;20184;-78
2023/08/28 07:40:09;;;;;;;17.73;4.10;;;;;;;34.42;33.81;94481.84;4974730;28;20653;-79
2023/08/28 07:42:36;;;;;;;9.95;4.53;;;;;;;34.28;32.94;94491.81;4974834;28;20193;-78
2023/08/28 07:45:02;;;;;;;16.42;4.22;;;;;;;33.67;33.94;94498.28;4974976;28;20182;-78
2023/08/28 07:47:28;;;;;;;4.97;3.75;;;;;;;33.42;34.02;94478.75;4975316;28;20288;-80
2023/08/28 07:49:54;;;;;;;10.75;4.00;;;;;;;33.62;34.62;94490.41;4957038;28;20605;-79
2023/08/28 07:52:19;;;;;;;6.25;4.05;;;;;;;33.77;34.43;94492.22;4975076;28;20178;-80
2023/08/28 07:54:46;;;;;;;13.82;4.00;;;;;;;34.23;34.43;94500.31;4975453;28;20235;-80
2023/08/28 07:57:11;;;;;;;8.75;4.07;;;;;;;34.59;33.19;94502.38;4974025;28;20291;-80
2023/08/28 07:59:37;;;;;;;9.13;4.05;;;;;;;34.78;33.09;94507.72;4973445;28;20669;-79
2023/08/28 08:02:06;;;;;;;8.02;4.25;;;;;;;34.97;32.39;94492.28;4956126;28;20704;-80
2023/08/28 08:04:32;;;;;;;7.22;4.25;;;;;;;35.26;32.15;94501.59;4973203;28;20225;-80
2023/08/28 08:06:57;;;;;;;16.55;4.22;;;;;;;35.44;31.63;94506.09;4973318;28;20181;-80
2023/08/28 08:09:23;;;;;;;5.18;3.63;;;;;;;35.61;32.67;94481.97;4972886;28;20185;-79
2023/08/28 08:11:49;;;;;;;6.78;3.50;;;;;;;35.98;31.23;94501.81;4972881;28;20188;-79
2023/08/28 08:14:14;;;;;;;9.10;3.65;;;;;;;36.01;30.52;94500.28;4973415;28;20203;-80
2023/08/28 08:16:39;;;;;;;13.88;4.53;;;;;;;35.96;30.29;94500.66;4974439;28;20281;-80
2023/08/28 08:19:05;;;;;;;8.73;4.40;;;;;;;35.55;30.97;94487.78;4973642;28;20551;-81
2023/08/28 08:21:30;;;;;;;13.27;4.38;;;;;;;35.85;31.24;94497.81;4954771;29;20182;-79
2023/08/28 08:23:55;;;;;;;8.10;3.95;;;;;;;36.09;30.17;94499.94;4954747;29;20237;-79
2023/08/28 08:26:21;;;;;;;6.18;3.83;;;;;;;36.18;30.78;94492.16;4955838;29;20690;-80
2023/08/28 08:28:47;;;;;;;10.00;5.18;;;;;;;36.05;29.86;94485.44;4954819;29;20281;-79
2023/08/28 08:31:12;;;;;;;8.20;4.30;;;;;;;35.78;30.59;94487.59;4938301;29;20565;-79
2023/08/28 08:33:38;;;;;;;12.18;6.13;;;;;;;35.89;30.87;94488.44;4952637;29;20174;-79
2023/08/28 08:36:05;;;;;;;12.80;4.97;;;;;;;36.03;31.29;94487.00;4952434;29;20273;-79
2023/08/28 08:38:30;;;;;;;8.93;4.57;;;;;;;35.77;30.28;94466.06;4952014;28;20217;-79
2023/08/28 08:40:58;;;;;;;13.60;4.50;;;;;;;36.01;31.01;94481.88;4952004;28;20643;-79
2023/08/28 08:43:25;;;;;;;7.65;4.22;;;;;;;36.12;29.64;94474.53;4952445;28;20213;-79
2023/08/28 08:45:58;;;;;;;5.72;4.10;;;;;;;35.81;29.66;94473.13;4960966;28;20194;-79
2023/08/28 08:48:25;;;;;;;10.20;4.32;;;;;;;35.39;31.29;94457.13;4971960;28;20264;-79
2023/08/28 08:51:00;;;;;;;4.70;3.63;;;;;;;35.44;30.77;94459.53;4972134;28;20247;-80
2023/08/28 08:53:34;;;;;;;9.18;3.90;;;;;;;35.51;30.08;94469.75;4971979;28;20184;-80
2023/08/28 08:56:03;;;;;;;6.10;3.63;;;;;;;35.20;30.35;94454.59;4954873;28;20276;-78
2023/08/28 08:58:30;;;;;;;7.85;3.88;;;;;;;35.12;30.78;94441.97;4972132;28;20181;-79
2023/08/28 09:00:57;;;;;;;8.40;4.03;;;;;;;34.71;31.01;94452.88;4971603;28;20173;-80
2023/08/28 09:03:24;;;;;;;10.63;3.25;;;;;;;34.91;32.17;94448.06;4971720;28;20225;-80
2023/08/28 09:05:50;;;;;;;6.70;3.90;;;;;;;35.33;31.14;94441.41;4967625;28;20183;-81
2023/08/28 09:08:17;;;;;;;10.98;4.53;;;;;;;35.44;31.36;94426.66;4961204;28;20254;-79
2023/08/28 09:10:46;;;;;;;7.90;3.17;;;;;;;35.73;29.88;94444.09;4961630;28;20610;-80
2023/08/28 09:13:12;;;;;;;7.45;3.45;;;;;;;35.49;29.58;94434.50;4964812;28;20213;-79
2023/08/28 09:15:37;;;;;;;10.20;4.18;;;;;;;35.58;30.21;94420.50;4963386;28;20199;-81
2023/08/28 09:18:04;;;;;;;6.80;3.65;;;;;;;35.62;29.80;94432.28;4959245;28;20558;-79
2023/08/28 09:20:29;;;;;;;9.77;3.78;;;;;;;35.50;29.61;94419.66;4958187;28;20195;-81
2023/08/28 09:22:55;;;;;;;4.53;3.13;;;;;;;35.53;28.92;94426.34;4952518;28;20190;-80
2023/08/28 09:25:22;;;;;;;3.72;3.33;;;;;;;35.18;29.59;94399.44;4952380;28;20185;-81
2023/08/28 09:27:49;;;;;;;6.82;3.85;;;;;;;35.18;30.39;94410.38;4952196;28;20702;-81
2023/08/28 09:30:27;;;;;;;5.78;3.38;;;;;;;35.24;29.57;94402.63;4935117;28;20202;-81
2023/08/28 09:32:52;;;;;;;4.65;3.17;;;;;;;35.00;29.39;94379.31;4952268;28;20658;-80
2023/08/28 09:35:21;;;;;;;8.13;3.53;;;;;;;35.30;28.46;94410.09;4952197;28;20183;-81
2023/08/28 09:38:00;;;;;;;6.25;3.65;;;;;;;35.40;29.81;94395.69;4952078;28;20178;-81
2023/08/28 09:40:33;;;;;;;8.80;3.67;;;;;;;35.56;29.46;94387.19;4971656;28;20185;-81
2023/08/28 09:42:59;;;;;;;10.20;3.30;;;;;;;35.76;29.01;94395.97;4953963;28;20178;-81
2023/08/28 09:45:32;;;;;;;6.57;3.47;;;;;;;35.55;27.90;94391.91;4952105;28;20189;-81
2023/08/28 09:47:58;;;;;;;4.65;3.28;;;;;;;35.04;28.06;94375.44;4957780;28;20209;-80
2023/08/28 09:50:27;;;;;;;4.95;3.30;;;;;;;34.77;28.88;94387.69;4954038;28;20251;-80
2023/08/28 09:52:53;;;;;;;6.70;3.50;;;;;;;34.07;28.73;94381.03;4958299;28;20191;-82
2023/08/28 09:55:18;;;;;;;7.07;2.92;;;;;;;33.60;31.02;94376.06;4951978;28;20193;-83
2023/08/28 09:57:44;;;;;;;7.82;2.88;;;;;;;33.47;28.86;94365.72;4952210;28;20174;-83
2023/08/28 10:00:11;;;;;;;6.95;3.92;;;;;;;33.09;30.62;94348.34;4969067;28;20272;-83
2023/08/28 10:02:38;;;;;;;7.13;2.85;;;;;;;33.27;30.04;94349.44;4947522;28;20295;-82
2023/08/28 10:05:08;;;;;;;4.50;2.83;;;;;;;33.45;29.48;94366.09;4971402;28;20189;-83
2023/08/28 10:07:38;;;;;;;5.40;3.10;;;;;;;33.30;28.40;94356.09;4971175;28;20193;-83
2023/08/28 10:10:05;;;;;;;5.97;3.28;;;;;;;33.20;30.38;94360.22;4953988;28;20186;-83
2023/08/28 10:12:31;;;;;;;4.95;3.22;;;;;;;32.95;29.72;94329.03;4972730;28;20192;-83
2023/08/28 10:15:01;;;;;;;4.03;2.70;;;;;;;32.94;29.83;94325.53;4975027;28;20177;-83
2023/08/28 10:17:33;;;;;;;8.07;3.20;;;;;;;33.16;29.86;94351.19;4974860;28;20193;-83
2023/08/28 10:20:01;;;;;;;9.05;3.60;;;;;;;32.87;29.56;94341.75;4975209;28;20225;-83
2023/08/28 10:22:30;;;;;;;6.82;3.95;;;;;;;32.96;30.56;94352.41;4974850;28;20562;-83
2023/08/28 10:24:57;;;;;;;7.65;3.30;;;;;;;32.90;31.35;94329.34;4974819;28;20621;-83
2023/08/28 10:27:23;;;;;;;5.43;3.28;;;;;;;33.15;30.64;94340.63;4974657;28;20200;-83
2023/08/28 10:29:52;;;;;;;4.55;2.92;;;;;;;32.93;30.30;94283.03;4941512;28;20184;-83
2023/08/28 10:32:20;;;;;;;5.45;3.10;;;;;;;33.33;30.19;94323.41;4974741;28;20184;-83
2023/08/28 10:34:46;;;;;;;5.03;3.13;;;;;;;33.49;29.82;94331.44;4974636;28;20185;-83
2023/08/28 10:37:15;;;;;;;11.52;3.33;;;;;;;33.52;29.86;94327.97;4974871;28;20260;-83
2023/08/28 10:39:43;;;;;;;7.03;3.83;;;;;;;33.52;29.00;94325.25;4957178;28;20281;-83
2023/08/28 10:42:09;;;;;;;19.90;3.45;;;;;;;33.50;30.18;94313.09;4974467;28;20217;-83
2023/08/28 10:44:37;;;;;;;6.85;3.45;;;;;;;33.52;28.73;94310.78;4974372;28;20189;-83
2023/08/28 10:47:03;;;;;;;5.72;2.95;;;;;;;33.55;28.60;94319.03;4974544;28;20735;-83
2023/08/28 10:49:28;;;;;;;5.82;2.95;;;;;;;33.36;28.56;94278.22;4974299;28;20198;-83
2023/08/28 10:52:02;;;;;;;9.85;3.03;;;;;;;33.49;29.39;94309.59;4974330;28;20178;-83
2023/08/28 10:54:37;;;;;;;4.22;2.47;;;;;;;33.46;27.88;94291.22;4974171;28;20188;-83
2023/08/28 10:57:06;;;;;;;5.38;2.70;;;;;;;33.48;27.97;94307.22;4974864;28;20189;-82
2023/08/28 10:59:44;;;;;;;7.38;3.00;;;;;;;33.30;27.32;94296.84;4974322;28;20184;-82
2023/08/28 11:02:10;;;;;;;3.30;3.00;;;;;;;33.30;27.85;94291.38;4956481;28;20665;-82
2023/08/28 11:04:38;;;;;;;5.20;3.08;;;;;;;33.08;28.77;94294.94;4974102;28;20177;-80
2023/08/28 11:07:27;;;;;;;8.98;3.65;;;;;;;33.11;29.47;94302.41;4973791;28;20680;-80
2023/08/28 11:10:20;;;;;;;6.72;2.65;;;;;;;32.96;28.13;94293.19;4973764;28;20653;-80
2023/08/28 11:12:56;;;;;;;6.07;2.80;;;;;;;32.93;29.49;94277.56;4974006;28;20210;-80
2023/08/28 11:15:27;;;;;;;6.95;2.83;;;;;;;32.99;28.74;94256.22;4974242;28;20177;-79
2023/08/28 11:18:24;;;;;;;4.03;2.90;;;;;;;33.28;27.94;94280.06;4973702;28;20177;-79
2023/08/28 11:20:56;;;;;;;7.78;2.63;;;;;;;33.17;28.06;94278.28;4973715;28;20182;-79
2023/08/28 11:23:23;;;;;;;4.45;3.00;;;;;;;33.08;28.75;94255.94;4973813;28;20178;-81
2023/08/28 11:25:50;;;;;;;6.28;3.00;;;;;;;33.11;29.35;94260.69;4973630;28;20182;-81
2023/08/28 11:28:30;;;;;;;5.10;2.78;;;;;;;33.23;28.61;94255.81;4957728;28;20210;-81